Time;durP1;ratioP1;P1;durP2;ratioP2;P2;SDS_P1;SDS_P2;PMS_P1;PMS_P2;Temp;Humidity;BMP_temperature;BMP_pressure;BME280_temperature;BME280_humidity;BME280_pressure;Samples;Min_cycle;Max_cycle;Signal;HPM_P1;HPM_P2
2021/01/15 21:10:20;;;;;;;86.55;47.20;;;52.00;1817.60;;;;;;5202726;23;20061;-70
2021/01/15 21:12:46;;;;;;;83.45;41.38;;;51.90;1817.60;;;;;;5035716;28;20039;-70
2021/01/15 21:15:12;;;;;;;101.22;49.35;;;51.90;1817.60;;;;;;5035859;28;20021;-70
2021/01/15 21:17:38;;;;;;;166.95;73.53;;;51.90;1817.60;;;;;;5035146;28;20022;-70
2021/01/15 21:20:05;;;;;;;133.93;58.33;;;51.90;1817.60;;;;;;5018072;28;20025;-68
2021/01/15 21:22:31;;;;;;;87.18;42.50;;;51.90;1817.60;;;;;;5035580;28;20497;-68
2021/01/15 21:24:56;;;;;;;90.28;43.92;;;51.80;1817.60;;;;;;5034912;28;20034;-68
2021/01/15 21:27:22;;;;;;;75.18;40.55;;;51.90;1843.20;;;;;;5035479;28;20467;-69
2021/01/15 21:29:48;;;;;;;109.57;59.75;;;51.80;1843.20;;;;;;5036041;28;20025;-68
2021/01/15 21:32:18;;;;;;;126.80;68.63;;;51.70;1817.60;;;;;;5036429;28;20030;-67
2021/01/15 21:34:46;;;;;;;166.27;85.80;;;51.80;1817.60;;;;;;5036364;28;20025;-67
2021/01/15 21:37:11;;;;;;;171.88;92.55;;;51.80;1817.60;;;;;;5036245;28;20467;-67
2021/01/15 21:39:37;;;;;;;133.93;79.80;;;51.80;1817.60;;;;;;5018361;28;20040;-67
2021/01/15 21:42:03;;;;;;;111.38;63.88;;;51.70;1792.00;;;;;;5036038;28;20030;-68
2021/01/15 21:44:29;;;;;;;130.77;69.45;;;51.80;1792.00;;;;;;5036087;28;20049;-67
2021/01/15 21:46:55;;;;;;;142.02;69.28;;;51.70;1792.00;;;;;;5036333;28;20056;-67
2021/01/15 21:49:20;;;;;;;345.92;160.68;;;51.70;1792.00;;;;;;5036148;28;20021;-67
2021/01/15 21:51:48;;;;;;;282.95;133.13;;;51.70;1792.00;;;;;;5035879;28;20045;-68
2021/01/15 21:54:14;;;;;;;336.63;162.63;;;51.70;1792.00;;;;;;5035709;28;20032;-68
2021/01/15 21:56:41;;;;;;;352.77;178.48;;;51.70;1792.00;;;;;;5036022;28;20055;-68
2021/01/15 21:59:07;;;;;;;283.73;142.90;;;51.60;1792.00;;;;;;5036088;28;20033;-68
2021/01/15 22:01:44;;;;;;;315.65;156.35;;;51.60;1792.00;;;;;;5035924;28;20382;-68
2021/01/15 22:04:13;;;;;;;272.85;131.63;;;51.70;1792.00;;;;;;5035909;28;20048;-67
2021/01/15 22:06:40;;;;;;;240.68;120.28;;;51.60;1792.00;;;;;;5036058;28;20037;-68
2021/01/15 22:09:08;;;;;;;239.95;123.60;;;51.50;1792.00;;;;;;5035669;28;20470;-69
2021/01/15 22:11:34;;;;;;;228.48;116.68;;;51.50;1792.00;;;;;;5035184;28;20086;-68
2021/01/15 22:14:01;;;;;;;282.17;139.93;;;51.50;1792.00;;;;;;5035469;28;20108;-68
2021/01/15 22:16:26;;;;;;;267.52;136.07;;;51.60;1792.00;;;;;;5035441;28;20075;-68
2021/01/15 22:18:52;;;;;;;217.65;108.57;;;51.50;1792.00;;;;;;5035554;28;20026;-68
2021/01/15 22:21:18;;;;;;;272.95;137.20;;;51.40;1792.00;;;;;;5035498;28;20061;-68
2021/01/15 22:23:45;;;;;;;474.50;303.63;;;51.40;1817.60;;;;;;5035265;28;20036;-68
2021/01/15 22:26:10;;;;;;;361.40;204.15;;;51.40;1843.20;;;;;;5016753;28;20037;-67
2021/01/15 22:28:36;;;;;;;420.35;220.43;;;51.80;1971.20;;;;;;5035126;28;20084;-68
2021/01/15 22:31:03;;;;;;;477.20;240.18;;;76.90;2048.00;;;;;;5035102;28;20095;-68
2021/01/15 22:33:29;;;;;;;448.05;232.50;;;52.10;1868.80;;;;;;5035092;28;20033;-67
2021/01/15 22:35:55;;;;;;;399.10;195.65;;;52.10;1843.20;;;;;;5035032;28;20527;-68
2021/01/15 22:38:29;;;;;;;638.80;317.45;;;51.90;1817.60;;;;;;5035190;28;20096;-68
2021/01/15 22:41:00;;;;;;;599.60;293.83;;;51.80;1792.00;;;;;;5034828;28;20112;-68
2021/01/15 22:43:27;;;;;;;461.63;225.30;;;51.70;1792.00;;;;;;5017601;28;20025;-67
2021/01/15 22:45:57;;;;;;;473.00;240.95;;;51.70;1792.00;;;;;;5035049;28;20033;-68
2021/01/15 22:48:23;;;;;;;382.13;180.20;;;51.70;1792.00;;;;;;5034819;28;20108;-67
2021/01/15 22:50:50;;;;;;;440.50;228.85;;;51.70;1766.40;;;;;;5034844;28;20364;-67
2021/01/15 22:53:39;;;;;;;358.63;171.23;;;51.60;1766.40;;;;;;5033964;28;20070;-67
2021/01/15 22:56:12;;;;;;;308.70;145.38;;;51.60;1766.40;;;;;;5034163;28;20037;-66
2021/01/15 22:58:38;;;;;;;435.08;221.02;;;51.50;1766.40;;;;;;5032503;28;20017;-67
2021/01/15 23:01:05;;;;;;;509.30;264.00;;;51.50;1766.40;;;;;;5027176;28;20033;-67
2021/01/15 23:03:31;;;;;;;480.02;248.70;;;51.50;1766.40;;;;;;5002614;28;20038;-67
2021/01/15 23:05:59;;;;;;;422.98;222.38;;;51.50;1766.40;;;;;;5025710;28;20025;-68
2021/01/15 23:08:26;;;;;;;421.40;233.57;;;51.40;1766.40;;;;;;5033714;28;20559;-68
2021/01/15 23:10:53;;;;;;;401.80;229.63;;;51.40;1766.40;;;;;;5034041;28;20494;-68
2021/01/15 23:13:23;;;;;;;206.93;109.38;;;51.30;1792.00;;;;;;5034464;28;20055;-67
2021/01/15 23:15:50;;;;;;;158.98;89.55;;;51.30;1817.60;;;;;;5034114;28;20033;-68
2021/01/15 23:18:19;;;;;;;574.78;257.67;;;51.30;1792.00;;;;;;5029550;28;20025;-67
2021/01/15 23:20:44;;;;;;;429.48;208.40;;;51.30;1792.00;;;;;;5033686;28;20088;-68
2021/01/15 23:23:12;;;;;;;295.15;146.07;;;51.20;1792.00;;;;;;5033507;28;20451;-67
2021/01/15 23:25:58;;;;;;;200.57;107.53;;;51.20;1792.00;;;;;;5027927;28;20026;-69
2021/01/15 23:28:24;;;;;;;126.90;62.75;;;51.20;1792.00;;;;;;5024932;28;20042;-67
2021/01/15 23:30:52;;;;;;;150.65;63.47;;;26.50;1766.40;;;;;;5027892;28;20471;-67
2021/01/15 23:33:22;;;;;;;156.77;67.95;;;26.50;1766.40;;;;;;5022475;28;20056;-69
2021/01/15 23:35:48;;;;;;;106.53;51.67;;;26.50;1766.40;;;;;;5005029;28;20499;-67
2021/01/15 23:38:15;;;;;;;88.53;43.97;;;26.50;1766.40;;;;;;5024665;28;20030;-67
2021/01/15 23:40:41;;;;;;;119.70;54.15;;;26.40;1766.40;;;;;;5024341;28;20028;-68
2021/01/15 23:43:09;;;;;;;121.43;50.53;;;26.30;1766.40;;;;;;5028655;28;20033;-69
2021/01/15 23:45:46;;;;;;;89.35;41.33;;;26.30;1766.40;;;;;;5033958;28;20481;-67
2021/01/15 23:48:18;;;;;;;65.18;32.47;;;26.30;1792.00;;;;;;5033547;28;20043;-68
2021/01/15 23:50:46;;;;;;;49.58;26.40;;;26.30;1766.40;;;;;;5026452;28;20037;-67
2021/01/15 23:53:21;;;;;;;52.47;26.75;;;26.30;1766.40;;;;;;5023382;28;20052;-68
2021/01/15 23:55:46;;;;;;;54.17;28.95;;;26.30;1792.00;;;;;;5027961;28;20022;-68
2021/01/15 23:58:12;;;;;;;49.95;28.83;;;26.30;1792.00;;;;;;5033454;28;20075;-66
